Time;durP1;ratioP1;P1;durP2;ratioP2;P2;SDS_P1;SDS_P2;PMS_P1;PMS_P2;Temp;Humidity;BMP_temperature;BMP_pressure;BME280_temperature;BME280_humidity;BME280_pressure;Samples;Min_cycle;Max_cycle;Signal;HPM_P1;HPM_P2
2022/07/18 00:02:20;;;;;;;9.88;3.90;;;;;;;;;;5030326;28;20035;-66
2022/07/18 00:04:47;;;;;;;8.25;3.95;;;;;;;;;;5043114;28;20763;-66
2022/07/18 00:07:13;;;;;;;8.38;3.72;;;;;;;;;;5032339;28;20040;-66
2022/07/18 00:09:40;;;;;;;9.98;4.47;;;;;;;;;;5029048;28;20063;-66
2022/07/18 00:12:07;;;;;;;14.80;6.55;;;;;;;;;;5044955;28;20123;-65
2022/07/18 00:14:33;;;;;;;8.25;3.92;;;;;;;;;;5046357;28;20388;-65
2022/07/18 00:16:59;;;;;;;10.77;4.00;;;;;;;;;;5024590;28;20043;-66
2022/07/18 00:19:26;;;;;;;8.05;3.95;;;;;;;;;;5044490;28;20036;-66
2022/07/18 00:21:52;;;;;;;7.15;3.67;;;;;;;;;;5042366;28;20317;-66
2022/07/18 00:24:18;;;;;;;9.70;4.05;;;;;;;;;;5045202;28;20028;-66
2022/07/18 00:26:45;;;;;;;11.10;4.20;;;;;;;;;;5043365;28;20316;-66
2022/07/18 00:29:11;;;;;;;9.55;4.10;;;;;;;;;;5043353;28;20032;-65
2022/07/18 00:31:37;;;;;;;9.90;4.47;;;;;;;;;;5048011;28;20051;-65
2022/07/18 00:34:04;;;;;;;10.73;4.57;;;;;;;;;;5045171;28;20025;-66
2022/07/18 00:36:31;;;;;;;10.63;4.50;;;;;;;;;;5050636;28;20546;-65
2022/07/18 00:38:58;;;;;;;10.32;3.83;;;;;;;;;;5045569;28;20032;-65
2022/07/18 00:41:24;;;;;;;8.10;3.80;;;;;;;;;;5028807;28;20407;-66
2022/07/18 00:43:50;;;;;;;11.18;4.72;;;;;;;;;;5043253;28;20357;-66
2022/07/18 00:46:20;;;;;;;8.02;4.15;;;;;;;;;;5047277;28;20634;-65
2022/07/18 00:48:46;;;;;;;10.10;3.70;;;;;;;;;;5046288;28;20621;-69
2022/07/18 00:51:12;;;;;;;9.77;4.13;;;;;;;;;;5031600;28;20147;-66
2022/07/18 00:53:39;;;;;;;11.20;4.15;;;;;;;;;;5047906;28;20485;-66
2022/07/18 00:56:05;;;;;;;9.52;4.28;;;;;;;;;;5026862;28;20444;-65
2022/07/18 00:58:31;;;;;;;9.52;4.00;;;;;;;;;;5026965;28;20098;-65
2022/07/18 01:03:42;;;;;;;10.13;4.22;;;;;;;;;;5044565;28;20571;-65
2022/07/18 01:06:09;;;;;;;8.25;4.03;;;;;;;;;;5050976;28;20116;-65
2022/07/18 01:08:35;;;;;;;11.05;4.15;;;;;;;;;;5049474;28;20175;-65
2022/07/18 01:11:01;;;;;;;11.07;3.53;;;;;;;;;;5046659;28;21932;-64
2022/07/18 01:13:28;;;;;;;9.02;3.97;;;;;;;;;;5049397;28;20043;-65
2022/07/18 01:15:54;;;;;;;11.55;4.00;;;;;;;;;;5043033;28;20031;-65
2022/07/18 01:18:20;;;;;;;10.20;4.10;;;;;;;;;;5048999;28;20024;-65
2022/07/18 01:20:46;;;;;;;9.27;4.00;;;;;;;;;;5048571;28;20052;-65
2022/07/18 01:23:12;;;;;;;8.85;3.70;;;;;;;;;;5030220;28;20474;-66
2022/07/18 01:25:38;;;;;;;7.10;3.40;;;;;;;;;;5031679;28;20154;-65
2022/07/18 01:28:05;;;;;;;9.65;4.13;;;;;;;;;;5046622;28;20025;-65
2022/07/18 01:30:31;;;;;;;9.68;4.13;;;;;;;;;;5052995;28;20029;-65
2022/07/18 01:33:01;;;;;;;9.45;3.97;;;;;;;;;;5029486;28;20377;-65
2022/07/18 01:35:27;;;;;;;9.00;4.00;;;;;;;;;;5029436;28;20055;-65
2022/07/18 01:37:54;;;;;;;8.90;4.28;;;;;;;;;;5023786;28;20056;-65
2022/07/18 01:40:20;;;;;;;9.10;3.70;;;;;;;;;;5045535;28;20440;-65
2022/07/18 01:42:47;;;;;;;9.52;3.70;;;;;;;;;;5029235;28;20562;-65
2022/07/18 01:45:14;;;;;;;10.85;4.20;;;;;;;;;;5048823;28;20029;-65
2022/07/18 01:47:40;;;;;;;12.63;4.40;;;;;;;;;;5049577;28;20036;-66
2022/07/18 01:50:06;;;;;;;11.68;3.97;;;;;;;;;;5044857;28;20064;-66
2022/07/18 01:52:32;;;;;;;8.15;3.97;;;;;;;;;;5046654;28;20103;-66
2022/07/18 01:54:59;;;;;;;11.20;4.35;;;;;;;;;;5048437;28;20498;-66
2022/07/18 01:57:25;;;;;;;12.45;4.70;;;;;;;;;;5050122;28;20090;-65
2022/07/18 01:59:51;;;;;;;10.75;4.55;;;;;;;;;;5047629;28;20137;-65
2022/07/18 02:02:17;;;;;;;15.27;4.93;;;;;;;;;;5033365;28;20421;-67
2022/07/18 02:05:02;;;;;;;13.80;4.93;;;;;;;;;;5049007;28;20379;-65
2022/07/18 02:07:28;;;;;;;12.27;4.63;;;;;;;;;;5033903;28;20433;-66
2022/07/18 02:09:55;;;;;;;13.70;4.70;;;;;;;;;;5046546;28;20078;-65
2022/07/18 02:12:21;;;;;;;10.20;4.60;;;;;;;;;;5037416;28;20570;-65
2022/07/18 02:14:48;;;;;;;13.52;4.85;;;;;;;;;;5031244;28;20469;-65
2022/07/18 02:17:14;;;;;;;15.48;5.20;;;;;;;;;;5049455;28;20020;-66
2022/07/18 02:19:41;;;;;;;14.40;5.00;;;;;;;;;;5051493;28;20067;-65
2022/07/18 02:22:07;;;;;;;12.35;5.00;;;;;;;;;;5045009;28;20131;-65
2022/07/18 02:24:33;;;;;;;9.05;4.13;;;;;;;;;;5050227;28;20051;-65
2022/07/18 02:27:00;;;;;;;9.15;4.05;;;;;;;;;;5048575;28;20307;-65
2022/07/18 02:29:26;;;;;;;8.45;4.10;;;;;;;;;;5053069;28;20308;-65
2022/07/18 02:31:52;;;;;;;10.35;4.20;;;;;;;;;;5047251;28;20250;-66
2022/07/18 02:34:18;;;;;;;8.90;3.80;;;;;;;;;;5046884;28;20407;-67
2022/07/18 02:36:45;;;;;;;7.75;3.75;;;;;;;;;;5049159;28;20345;-65
2022/07/18 02:39:11;;;;;;;9.82;4.10;;;;;;;;;;5032015;28;20028;-66
2022/07/18 02:41:37;;;;;;;10.05;4.30;;;;;;;;;;5036389;28;20032;-66
2022/07/18 02:44:04;;;;;;;8.23;4.00;;;;;;;;;;5051455;28;20083;-66
2022/07/18 02:46:30;;;;;;;8.35;4.15;;;;;;;;;;5061132;28;20450;-66
2022/07/18 02:48:56;;;;;;;9.10;4.63;;;;;;;;;;5048530;28;20036;-66
2022/07/18 02:51:22;;;;;;;9.93;4.20;;;;;;;;;;5055025;28;20032;-66
2022/07/18 02:53:48;;;;;;;9.88;3.90;;;;;;;;;;5032195;28;20028;-66
2022/07/18 02:56:15;;;;;;;9.38;3.90;;;;;;;;;;5049181;28;20045;-66
2022/07/18 02:58:41;;;;;;;9.20;3.90;;;;;;;;;;5032470;28;20492;-66
2022/07/18 03:01:07;;;;;;;7.68;3.53;;;;;;;;;;5053499;28;20242;-66
2022/07/18 03:03:33;;;;;;;8.57;4.07;;;;;;;;;;5052033;28;20135;-65
2022/07/18 03:05:59;;;;;;;10.23;3.83;;;;;;;;;;5049005;28;20270;-66
2022/07/18 03:08:25;;;;;;;11.30;4.20;;;;;;;;;;5049130;28;20033;-66
2022/07/18 03:10:51;;;;;;;9.70;3.83;;;;;;;;;;5043239;28;20108;-66
2022/07/18 03:13:17;;;;;;;10.65;4.40;;;;;;;;;;5047812;28;20023;-66
2022/07/18 03:15:44;;;;;;;9.10;3.53;;;;;;;;;;5047515;28;20484;-66
2022/07/18 03:18:10;;;;;;;9.15;3.75;;;;;;;;;;5048995;28;21325;-66
2022/07/18 03:20:36;;;;;;;7.70;3.83;;;;;;;;;;5052296;28;20038;-66
2022/07/18 03:23:05;;;;;;;9.27;3.90;;;;;;;;;;5043462;28;20143;-65
2022/07/18 03:25:32;;;;;;;7.97;3.90;;;;;;;;;;5046002;28;20020;-65
2022/07/18 03:27:58;;;;;;;10.15;4.10;;;;;;;;;;5043031;28;20114;-65
2022/07/18 03:30:25;;;;;;;11.57;4.35;;;;;;;;;;5049991;28;20027;-66
2022/07/18 03:32:51;;;;;;;10.27;4.25;;;;;;;;;;5044831;28;20143;-65
2022/07/18 03:35:17;;;;;;;9.15;4.50;;;;;;;;;;5047265;28;20068;-66
2022/07/18 03:37:43;;;;;;;8.45;4.05;;;;;;;;;;5042266;28;20098;-65
2022/07/18 03:40:09;;;;;;;9.32;3.92;;;;;;;;;;5046825;28;20028;-65
2022/07/18 03:42:39;;;;;;;10.02;4.00;;;;;;;;;;5045524;28;20028;-66
2022/07/18 03:45:06;;;;;;;10.95;5.20;;;;;;;;;;5043689;28;20025;-66
2022/07/18 03:47:32;;;;;;;11.15;4.63;;;;;;;;;;5030579;28;20224;-66
2022/07/18 03:49:58;;;;;;;13.00;4.53;;;;;;;;;;5047016;28;20044;-66
2022/07/18 03:52:24;;;;;;;11.95;4.88;;;;;;;;;;5050769;28;20469;-66
2022/07/18 03:54:50;;;;;;;15.05;4.60;;;;;;;;;;5044799;28;20464;-66
2022/07/18 03:57:16;;;;;;;8.13;3.88;;;;;;;;;;5051093;28;20237;-66
2022/07/18 03:59:43;;;;;;;10.82;4.18;;;;;;;;;;5044953;28;20500;-65
2022/07/18 04:02:09;;;;;;;11.20;3.65;;;;;;;;;;5048118;28;20024;-65
2022/07/18 04:04:35;;;;;;;10.73;3.97;;;;;;;;;;5037727;28;20028;-65
2022/07/18 04:07:01;;;;;;;8.95;3.90;;;;;;;;;;5046784;28;20035;-65
2022/07/18 04:09:28;;;;;;;7.28;3.67;;;;;;;;;;5033478;28;20056;-65
2022/07/18 04:11:54;;;;;;;11.23;4.13;;;;;;;;;;5027959;28;20036;-65
2022/07/18 04:14:22;;;;;;;9.45;4.45;;;;;;;;;;5050517;28;20541;-64
2022/07/18 04:16:49;;;;;;;11.07;4.45;;;;;;;;;;5045342;28;20028;-65
2022/07/18 04:19:16;;;;;;;11.43;4.50;;;;;;;;;;5031805;28;20032;-65
2022/07/18 04:21:43;;;;;;;9.30;4.30;;;;;;;;;;5044407;28;20536;-65
2022/07/18 04:24:09;;;;;;;11.90;4.13;;;;;;;;;;5046061;28;20036;-65
2022/07/18 04:26:35;;;;;;;10.38;3.88;;;;;;;;;;5035117;28;20191;-65
2022/07/18 04:29:01;;;;;;;9.25;4.50;;;;;;;;;;5047824;28;20265;-65
2022/07/18 04:31:27;;;;;;;8.88;3.90;;;;;;;;;;5046147;28;20037;-65
2022/07/18 04:33:54;;;;;;;10.15;4.20;;;;;;;;;;5047192;28;20589;-65
2022/07/18 04:36:20;;;;;;;9.65;4.40;;;;;;;;;;5046289;28;20690;-65
2022/07/18 04:38:46;;;;;;;10.02;4.60;;;;;;;;;;5046367;28;20036;-65
2022/07/18 04:41:12;;;;;;;11.27;4.95;;;;;;;;;;5047471;28;20039;-65
2022/07/18 04:43:38;;;;;;;9.07;4.47;;;;;;;;;;5048348;28;20393;-65
2022/07/18 04:46:05;;;;;;;9.23;4.32;;;;;;;;;;5044900;28;20020;-66
2022/07/18 04:48:31;;;;;;;10.10;4.47;;;;;;;;;;5046660;28;20068;-66
2022/07/18 04:50:57;;;;;;;10.95;4.60;;;;;;;;;;5046982;28;20029;-66
2022/07/18 04:53:23;;;;;;;8.48;3.90;;;;;;;;;;5047915;28;20035;-65
2022/07/18 04:55:49;;;;;;;10.15;4.47;;;;;;;;;;5045267;28;20380;-66
2022/07/18 04:58:15;;;;;;;9.80;4.70;;;;;;;;;;5031147;28;20031;-66
2022/07/18 05:00:41;;;;;;;8.85;4.20;;;;;;;;;;5049713;28;20103;-66
2022/07/18 05:03:07;;;;;;;8.60;4.00;;;;;;;;;;5029615;28;20531;-66
2022/07/18 05:05:33;;;;;;;9.70;3.80;;;;;;;;;;5049709;28;20089;-65
2022/07/18 05:07:59;;;;;;;9.77;4.05;;;;;;;;;;5044424;28;20062;-66
2022/07/18 05:10:26;;;;;;;11.73;4.30;;;;;;;;;;5034224;28;20020;-66
2022/07/18 05:12:54;;;;;;;8.52;4.45;;;;;;;;;;5045345;28;20402;-66
2022/07/18 05:15:22;;;;;;;10.90;4.18;;;;;;;;;;5048010;28;20024;-65
2022/07/18 05:17:48;;;;;;;10.18;4.50;;;;;;;;;;5045138;28;20033;-65
2022/07/18 05:20:16;;;;;;;12.18;4.45;;;;;;;;;;5052314;28;20062;-65
2022/07/18 05:22:42;;;;;;;9.27;4.07;;;;;;;;;;5048274;28;20024;-66
2022/07/18 05:25:09;;;;;;;12.98;4.55;;;;;;;;;;5049753;28;20119;-65
2022/07/18 05:27:35;;;;;;;10.63;4.93;;;;;;;;;;5052011;28;20040;-66
2022/07/18 05:30:03;;;;;;;16.33;5.15;;;;;;;;;;5049032;28;21910;-65
2022/07/18 05:32:29;;;;;;;14.68;5.22;;;;;;;;;;5054193;28;20086;-65
2022/07/18 05:34:55;;;;;;;12.73;4.70;;;;;;;;;;5051718;28;20020;-65
2022/07/18 05:37:22;;;;;;;14.48;5.47;;;;;;;;;;5036950;28;20051;-65
2022/07/18 05:39:50;;;;;;;14.45;5.50;;;;;;;;;;5047200;28;20030;-66
2022/07/18 05:42:16;;;;;;;17.05;5.45;;;;;;;;;;5034056;28;20067;-65
2022/07/18 05:44:42;;;;;;;16.17;5.13;;;;;;;;;;5051663;28;20024;-66
2022/07/18 05:47:08;;;;;;;16.70;5.55;;;;;;;;;;5053389;28;20040;-66
2022/07/18 05:49:34;;;;;;;13.75;5.15;;;;;;;;;;5035765;28;20055;-67
2022/07/18 05:52:00;;;;;;;30.00;6.80;;;;;;;;;;5032081;28;20028;-67
2022/07/18 05:54:26;;;;;;;20.05;6.13;;;;;;;;;;5052095;28;20028;-65
2022/07/18 05:56:53;;;;;;;17.98;5.30;;;;;;;;;;5052048;28;20074;-66
2022/07/18 05:59:20;;;;;;;10.93;5.10;;;;;;;;;;5053943;28;20060;-66
2022/07/18 06:01:47;;;;;;;15.23;4.88;;;;;;;;;;5048549;28;20086;-66
2022/07/18 06:04:13;;;;;;;16.80;4.95;;;;;;;;;;5050853;28;20031;-66
2022/07/18 06:06:39;;;;;;;10.88;4.80;;;;;;;;;;5051973;28;20115;-66
2022/07/18 06:09:05;;;;;;;14.00;5.18;;;;;;;;;;5047268;28;20358;-66
2022/07/18 06:11:32;;;;;;;12.70;5.05;;;;;;;;;;5056557;28;20036;-65
2022/07/18 06:13:58;;;;;;;27.77;6.43;;;;;;;;;;5035389;28;20704;-67
2022/07/18 06:16:24;;;;;;;24.17;5.50;;;;;;;;;;5053362;28;20553;-66
2022/07/18 06:18:50;;;;;;;26.90;5.97;;;;;;;;;;5050462;28;20039;-67
2022/07/18 06:21:16;;;;;;;37.53;6.88;;;;;;;;;;5054209;28;20498;-67
2022/07/18 06:23:42;;;;;;;25.35;5.78;;;;;;;;;;5052184;28;21368;-66
2022/07/18 06:26:08;;;;;;;23.23;5.80;;;;;;;;;;5056282;28;20032;-66
2022/07/18 06:28:34;;;;;;;27.70;5.68;;;;;;;;;;5053825;28;20135;-66
2022/07/18 06:31:01;;;;;;;30.00;6.18;;;;;;;;;;5026326;28;20652;-66
2022/07/18 06:33:27;;;;;;;23.45;5.57;;;;;;;;;;4994225;28;20366;-67
2022/07/18 06:35:54;;;;;;;20.70;5.88;;;;;;;;;;5050009;28;20531;-67
2022/07/18 06:38:20;;;;;;;37.38;6.80;;;;;;;;;;5052732;28;20388;-68
2022/07/18 06:40:46;;;;;;;37.22;6.78;;;;;;;;;;5047746;28;20132;-66
2022/07/18 06:43:18;;;;;;;36.67;6.90;;;;;;;;;;5052457;28;20082;-66
2022/07/18 06:45:45;;;;;;;32.60;6.30;;;;;;;;;;5050860;28;20032;-66
2022/07/18 06:48:11;;;;;;;19.88;4.93;;;;;;;;;;5032750;28;20035;-66
2022/07/18 06:50:37;;;;;;;62.03;7.50;;;;;;;;;;5051958;28;20335;-66
2022/07/18 06:53:03;;;;;;;82.15;10.65;;;;;;;;;;5048590;28;20076;-66
2022/07/18 06:55:29;;;;;;;32.08;6.35;;;;;;;;;;5054112;28;20090;-66
2022/07/18 06:57:55;;;;;;;36.85;7.95;;;;;;;;;;5049883;28;20110;-66
2022/07/18 07:00:21;;;;;;;24.67;6.32;;;;;;;;;;5056537;28;20033;-66
2022/07/18 07:02:48;;;;;;;30.95;6.28;;;;;;;;;;5032454;28;20040;-66
2022/07/18 07:05:15;;;;;;;31.80;6.28;;;;;;;;;;5052857;28;20824;-66
2022/07/18 07:07:42;;;;;;;23.02;6.22;;;;;;;;;;5030701;28;20028;-66
2022/07/18 07:10:09;;;;;;;19.83;5.40;;;;;;;;;;5012579;28;20931;-66
2022/07/18 07:12:42;;;;;;;16.67;4.72;;;;;;;;;;5014260;28;20484;-66
2022/07/18 07:15:09;;;;;;;15.00;4.68;;;;;;;;;;5014198;28;20832;-66
2022/07/18 07:17:35;;;;;;;13.30;4.97;;;;;;;;;;5016933;28;20044;-66
2022/07/18 07:20:02;;;;;;;13.43;4.40;;;;;;;;;;4989364;28;21783;-66
2022/07/18 07:22:29;;;;;;;9.55;3.80;;;;;;;;;;5012413;28;20453;-65
2022/07/18 07:24:55;;;;;;;14.55;4.05;;;;;;;;;;5011766;28;23113;-65
2022/07/18 07:27:21;;;;;;;12.60;4.63;;;;;;;;;;5013154;28;20024;-65
2022/07/18 07:29:47;;;;;;;11.82;3.60;;;;;;;;;;5014364;28;20480;-65
2022/07/18 07:32:13;;;;;;;12.07;4.03;;;;;;;;;;5017562;28;20032;-66
2022/07/18 07:34:40;;;;;;;13.30;4.13;;;;;;;;;;5013381;28;20068;-65
2022/07/18 07:37:06;;;;;;;11.80;3.75;;;;;;;;;;4994248;28;20111;-67
2022/07/18 07:39:32;;;;;;;9.32;3.60;;;;;;;;;;5011576;28;20387;-67
2022/07/18 07:41:58;;;;;;;10.68;4.10;;;;;;;;;;5011813;28;21225;-66
2022/07/18 07:44:24;;;;;;;10.68;3.88;;;;;;;;;;5021703;28;20493;-67
2022/07/18 07:46:51;;;;;;;12.48;4.28;;;;;;;;;;5031280;28;20040;-67
2022/07/18 07:49:17;;;;;;;9.57;3.88;;;;;;;;;;5052251;28;20049;-66
2022/07/18 07:51:43;;;;;;;35.90;7.15;;;;;;;;;;5036863;28;20486;-66
2022/07/18 07:54:09;;;;;;;20.15;4.43;;;;;;;;;;5033397;28;20152;-66
2022/07/18 07:56:35;;;;;;;10.77;3.50;;;;;;;;;;5051604;28;20349;-67
2022/07/18 07:59:01;;;;;;;10.32;3.45;;;;;;;;;;5048101;28;20063;-66
2022/07/18 08:01:27;;;;;;;11.07;3.80;;;;;;;;;;5051557;28;20116;-64
2022/07/18 08:03:53;;;;;;;70.80;9.43;;;;;;;;;;5035535;28;20610;-66
2022/07/18 08:06:20;;;;;;;15.00;4.07;;;;;;;;;;5036222;28;20032;-65
2022/07/18 08:08:46;;;;;;;12.23;3.58;;;;;;;;;;5033268;28;20214;-64
2022/07/18 08:11:12;;;;;;;15.23;3.50;;;;;;;;;;5034981;28;20467;-65
2022/07/18 08:13:38;;;;;;;10.02;3.28;;;;;;;;;;5050408;28;20225;-65
2022/07/18 08:16:04;;;;;;;8.35;3.40;;;;;;;;;;5049513;28;20020;-66
2022/07/18 08:18:31;;;;;;;9.07;3.40;;;;;;;;;;5035201;28;20961;-65
2022/07/18 08:20:57;;;;;;;10.60;3.65;;;;;;;;;;5050309;28;20047;-65
2022/07/18 08:23:23;;;;;;;21.98;4.65;;;;;;;;;;5051629;28;20562;-66
2022/07/18 08:25:49;;;;;;;11.50;3.67;;;;;;;;;;5048414;28;20072;-65
2022/07/18 08:28:15;;;;;;;12.63;3.63;;;;;;;;;;5037159;28;20094;-66
2022/07/18 08:30:41;;;;;;;13.45;3.55;;;;;;;;;;5033363;28;20434;-66
2022/07/18 08:33:08;;;;;;;12.57;3.70;;;;;;;;;;5051580;28;20109;-66
2022/07/18 08:35:34;;;;;;;11.05;3.50;;;;;;;;;;5051647;28;20387;-66
2022/07/18 08:38:01;;;;;;;12.93;3.65;;;;;;;;;;5053892;28;20071;-66
2022/07/18 08:40:27;;;;;;;11.60;3.67;;;;;;;;;;5039903;28;20016;-66
2022/07/18 08:42:56;;;;;;;10.80;3.33;;;;;;;;;;5055285;28;20059;-66
2022/07/18 08:45:24;;;;;;;11.20;3.90;;;;;;;;;;5056964;28;20032;-66
2022/07/18 08:47:51;;;;;;;11.00;3.80;;;;;;;;;;5048602;28;20437;-66
2022/07/18 08:50:18;;;;;;;10.93;3.55;;;;;;;;;;5050571;28;20059;-65
2022/07/18 08:52:45;;;;;;;8.88;3.45;;;;;;;;;;5055821;28;20305;-66
2022/07/18 08:55:11;;;;;;;8.27;3.05;;;;;;;;;;5038156;28;20024;-65
2022/07/18 08:57:37;;;;;;;7.32;2.90;;;;;;;;;;5055184;28;20396;-65
2022/07/18 09:00:07;;;;;;;8.18;3.55;;;;;;;;;;5052342;28;20042;-65
2022/07/18 09:02:33;;;;;;;16.17;3.70;;;;;;;;;;5055490;28;20028;-66
2022/07/18 09:05:04;;;;;;;9.05;3.35;;;;;;;;;;5034173;28;20136;-66
2022/07/18 09:07:35;;;;;;;7.88;3.08;;;;;;;;;;5052927;28;20195;-66
2022/07/18 09:10:02;;;;;;;10.60;3.60;;;;;;;;;;5032612;28;20113;-66
2022/07/18 09:12:30;;;;;;;11.52;3.70;;;;;;;;;;5035038;28;20397;-66
2022/07/18 09:14:57;;;;;;;9.02;3.30;;;;;;;;;;5051196;28;21472;-66
2022/07/18 09:17:25;;;;;;;12.95;3.40;;;;;;;;;;5058422;28;20039;-66
2022/07/18 09:19:58;;;;;;;47.53;7.88;;;;;;;;;;5047430;28;20032;-67
2022/07/18 09:22:25;;;;;;;15.07;4.13;;;;;;;;;;5051940;28;20029;-65
2022/07/18 09:25:12;;;;;;;11.85;3.60;;;;;;;;;;5050544;28;20025;-65
2022/07/18 09:27:38;;;;;;;8.18;3.50;;;;;;;;;;5036803;28;20036;-65
2022/07/18 09:30:10;;;;;;;8.77;3.33;;;;;;;;;;5050348;28;20031;-65
2022/07/18 09:32:37;;;;;;;9.65;3.60;;;;;;;;;;5050197;28;20033;-65
2022/07/18 09:35:07;;;;;;;8.80;3.38;;;;;;;;;;5049729;28;20370;-66
2022/07/18 09:37:33;;;;;;;10.85;3.83;;;;;;;;;;5053695;28;20115;-65
2022/07/18 09:40:19;;;;;;;9.48;3.33;;;;;;;;;;5047832;28;20032;-65
2022/07/18 09:42:49;;;;;;;11.02;3.80;;;;;;;;;;5030257;28;20067;-65
2022/07/18 09:45:15;;;;;;;9.95;3.80;;;;;;;;;;5030750;28;20125;-65
2022/07/18 09:47:52;;;;;;;13.20;4.72;;;;;;;;;;5049100;28;20074;-65
2022/07/18 09:50:23;;;;;;;19.52;4.82;;;;;;;;;;5051961;28;20504;-66
2022/07/18 09:52:58;;;;;;;11.13;3.83;;;;;;;;;;5053307;28;20048;-66
2022/07/18 09:55:24;;;;;;;;;;;;;;;;;;5035112;28;20554;-65
2022/07/18 09:58:07;;;;;;;30.63;4.88;;;;;;;;;;5047834;28;19919;-66
2022/07/18 10:00:35;;;;;;;12.63;4.00;;;;;;;;;;5035248;28;20032;-66
2022/07/18 10:03:03;;;;;;;7.70;3.60;;;;;;;;;;5045415;28;21957;-66
2022/07/18 10:05:30;;;;;;;28.25;6.20;;;;;;;;;;5048227;28;20032;-65
2022/07/18 10:07:57;;;;;;;28.92;5.70;;;;;;;;;;5026873;28;20352;-66
2022/07/18 10:10:26;;;;;;;13.95;4.05;;;;;;;;;;5049734;28;20067;-66
2022/07/18 10:12:54;;;;;;;10.32;3.63;;;;;;;;;;5048680;28;20273;-67
2022/07/18 10:15:24;;;;;;;9.88;3.40;;;;;;;;;;5051535;28;20036;-67
2022/07/18 10:17:50;;;;;;;10.60;3.50;;;;;;;;;;5050683;28;20050;-66
2022/07/18 10:20:17;;;;;;;95.40;16.13;;;;;;;;;;5053409;28;20036;-66
2022/07/18 10:22:44;;;;;;;58.13;9.65;;;;;;;;;;5050380;28;20696;-67
2022/07/18 10:25:11;;;;;;;18.63;4.82;;;;;;;;;;5053670;28;20076;-66
2022/07/18 10:27:51;;;;;;;19.42;4.57;;;;;;;;;;5054198;28;20032;-66
2022/07/18 10:30:19;;;;;;;10.10;3.72;;;;;;;;;;5051690;28;20687;-69
2022/07/18 10:32:45;;;;;;;7.95;3.50;;;;;;;;;;5048564;28;20085;-67
2022/07/18 10:35:15;;;;;;;7.55;3.05;;;;;;;;;;5050709;28;20066;-66
2022/07/18 10:37:41;;;;;;;8.63;3.20;;;;;;;;;;5055811;28;20670;-66
2022/07/18 10:40:24;;;;;;;9.73;3.35;;;;;;;;;;5052723;28;20039;-66
2022/07/18 10:43:09;;;;;;;8.63;3.30;;;;;;;;;;5047420;28;21027;-66
2022/07/18 10:45:45;;;;;;;6.45;3.30;;;;;;;;;;5051227;28;20520;-66
2022/07/18 10:48:30;;;;;;;7.72;3.10;;;;;;;;;;5052423;28;20114;-66
2022/07/18 10:51:11;;;;;;;7.88;3.10;;;;;;;;;;5047920;28;20833;-66
2022/07/18 10:53:56;;;;;;;7.80;3.38;;;;;;;;;;5053446;28;20102;-66
2022/07/18 10:56:28;;;;;;;9.85;2.85;;;;;;;;;;5051072;28;20063;-66
2022/07/18 10:59:14;;;;;;;9.30;3.28;;;;;;;;;;5050700;28;20300;-66
2022/07/18 11:01:48;;;;;;;8.23;3.08;;;;;;;;;;5034745;28;21532;-66
2022/07/18 11:04:43;;;;;;;6.22;2.78;;;;;;;;;;5052878;28;20566;-66
2022/07/18 11:07:11;;;;;;;8.13;2.83;;;;;;;;;;4944755;28;20219;-66
2022/07/18 11:09:42;;;;;;;6.80;3.00;;;;;;;;;;4945410;28;20058;-66
2022/07/18 11:12:18;;;;;;;8.48;2.70;;;;;;;;;;4942579;28;20039;-67
2022/07/18 11:15:04;;;;;;;22.95;3.97;;;;;;;;;;4940867;28;20054;-66
2022/07/18 11:17:49;;;;;;;16.00;3.30;;;;;;;;;;4945128;28;20616;-66
2022/07/18 11:20:25;;;;;;;11.45;3.60;;;;;;;;;;4923376;28;20153;-67
2022/07/18 11:22:51;;;;;;;38.78;4.60;;;;;;;;;;4940436;28;20548;-66
2022/07/18 11:25:20;;;;;;;45.15;4.88;;;;;;;;;;4940327;28;20550;-67
2022/07/18 11:27:47;;;;;;;15.20;3.42;;;;;;;;;;4939224;28;20049;-66
2022/07/18 11:30:19;;;;;;;21.88;4.13;;;;;;;;;;4927375;28;20631;-66
2022/07/18 11:32:46;;;;;;;14.80;3.53;;;;;;;;;;4923467;28;20570;-66
2022/07/18 11:35:13;;;;;;;52.75;5.47;;;;;;;;;;4943515;28;20347;-66
2022/07/18 11:37:39;;;;;;;15.13;3.20;;;;;;;;;;4920116;28;20057;-65
2022/07/18 11:40:06;;;;;;;11.93;3.03;;;;;;;;;;4937616;28;20038;-66
2022/07/18 11:42:37;;;;;;;15.77;3.00;;;;;;;;;;4949000;28;20831;-65
2022/07/18 11:45:03;;;;;;;10.48;3.28;;;;;;;;;;5031537;28;20035;-66
2022/07/18 11:47:29;;;;;;;8.18;2.88;;;;;;;;;;5047223;28;20044;-67
2022/07/18 11:49:56;;;;;;;9.57;3.05;;;;;;;;;;5050120;28;20040;-65
2022/07/18 11:52:22;;;;;;;10.30;3.10;;;;;;;;;;5051453;28;20711;-66
2022/07/18 11:54:48;;;;;;;9.68;3.30;;;;;;;;;;5039213;28;20454;-66
2022/07/18 11:57:26;;;;;;;6.47;2.80;;;;;;;;;;5053466;28;20728;-66
2022/07/18 11:59:52;;;;;;;12.10;3.40;;;;;;;;;;5048438;28;21115;-65
2022/07/18 12:02:20;;;;;;;8.13;3.03;;;;;;;;;;5051069;28;20056;-66
2022/07/18 12:04:46;;;;;;;6.75;2.50;;;;;;;;;;5028500;28;20032;-65
2022/07/18 12:07:39;;;;;;;9.82;2.65;;;;;;;;;;5052101;28;20036;-65
2022/07/18 12:10:17;;;;;;;7.88;2.55;;;;;;;;;;5043377;28;20047;-66
2022/07/18 12:12:43;;;;;;;7.57;2.90;;;;;;;;;;5051219;28;20490;-66
2022/07/18 12:15:09;;;;;;;7.82;2.65;;;;;;;;;;5033313;28;20028;-66
2022/07/18 12:17:44;;;;;;;10.52;2.50;;;;;;;;;;5049959;28;20427;-66
2022/07/18 12:20:28;;;;;;;10.40;3.10;;;;;;;;;;5050236;28;20467;-67
2022/07/18 12:23:08;;;;;;;9.43;2.95;;;;;;;;;;5048031;28;20034;-67
2022/07/18 12:25:44;;;;;;;11.73;3.08;;;;;;;;;;5052886;28;20036;-67
2022/07/18 12:28:17;;;;;;;10.20;2.80;;;;;;;;;;5034501;28;20107;-67
2022/07/18 12:30:44;;;;;;;12.20;3.20;;;;;;;;;;5045595;28;20035;-65
2022/07/18 12:33:10;;;;;;;10.23;2.95;;;;;;;;;;5050774;28;20086;-66
2022/07/18 12:35:37;;;;;;;7.90;2.50;;;;;;;;;;5054360;28;20062;-66
2022/07/18 12:38:03;;;;;;;6.35;2.38;;;;;;;;;;5048433;28;20510;-67
2022/07/18 12:40:48;;;;;;;10.77;2.97;;;;;;;;;;5054579;28;20036;-65
2022/07/18 12:43:16;;;;;;;9.00;2.92;;;;;;;;;;5051514;28;20842;-66
2022/07/18 12:45:43;;;;;;;10.07;2.90;;;;;;;;;;5053970;28;20028;-65
2022/07/18 12:48:10;;;;;;;7.80;2.72;;;;;;;;;;5035768;28;20666;-66
2022/07/18 12:50:37;;;;;;;7.63;2.70;;;;;;;;;;5049522;28;20257;-68
2022/07/18 12:53:03;;;;;;;8.27;2.80;;;;;;;;;;5049682;28;20064;-67
2022/07/18 12:55:29;;;;;;;6.32;2.58;;;;;;;;;;5054187;28;20545;-67
2022/07/18 12:57:55;;;;;;;7.88;2.65;;;;;;;;;;5048225;28;20034;-65
2022/07/18 13:00:22;;;;;;;8.35;2.67;;;;;;;;;;5051728;28;20101;-65
2022/07/18 13:02:48;;;;;;;7.00;2.60;;;;;;;;;;5047865;28;20575;-66
2022/07/18 13:05:14;;;;;;;7.85;2.33;;;;;;;;;;5052828;28;20044;-66
2022/07/18 13:07:40;;;;;;;8.15;2.50;;;;;;;;;;5053796;28;20107;-65
2022/07/18 13:10:07;;;;;;;9.60;2.75;;;;;;;;;;5050813;28;20107;-66
2022/07/18 13:12:33;;;;;;;7.68;2.30;;;;;;;;;;5053027;28;20042;-66
2022/07/18 13:14:59;;;;;;;6.40;2.45;;;;;;;;;;5051225;28;20021;-65
2022/07/18 13:17:25;;;;;;;6.22;2.47;;;;;;;;;;5053488;28;20031;-65
2022/07/18 13:19:51;;;;;;;10.10;2.53;;;;;;;;;;5049232;28;20052;-67
2022/07/18 13:22:17;;;;;;;8.07;2.65;;;;;;;;;;5033236;28;20604;-67
2022/07/18 13:24:44;;;;;;;8.32;2.50;;;;;;;;;;5051657;28;20097;-66
2022/07/18 13:27:10;;;;;;;7.60;2.53;;;;;;;;;;5050303;28;20024;-66
2022/07/18 13:29:36;;;;;;;7.93;2.30;;;;;;;;;;5051825;28;20032;-67
2022/07/18 13:32:03;;;;;;;7.47;2.88;;;;;;;;;;5046211;28;22007;-66
2022/07/18 13:34:29;;;;;;;6.82;2.10;;;;;;;;;;5046283;28;20036;-66
2022/07/18 13:36:55;;;;;;;10.10;2.60;;;;;;;;;;5043609;28;20032;-66
2022/07/18 13:39:22;;;;;;;10.20;2.60;;;;;;;;;;5052325;28;20055;-66
2022/07/18 13:41:50;;;;;;;9.02;2.50;;;;;;;;;;5051984;28;20028;-65
2022/07/18 13:44:16;;;;;;;8.00;2.25;;;;;;;;;;5050715;28;20035;-65
2022/07/18 13:46:42;;;;;;;6.32;2.30;;;;;;;;;;5045412;28;20032;-65
2022/07/18 13:49:09;;;;;;;8.32;2.42;;;;;;;;;;5047318;28;20052;-67
2022/07/18 13:51:36;;;;;;;7.55;2.38;;;;;;;;;;5054461;28;20032;-65
2022/07/18 13:54:03;;;;;;;6.72;2.30;;;;;;;;;;5031696;28;20042;-65
2022/07/18 13:56:29;;;;;;;7.60;2.15;;;;;;;;;;5057379;28;20359;-66
2022/07/18 13:58:55;;;;;;;7.90;2.05;;;;;;;;;;5051612;28;20036;-67
2022/07/18 14:01:21;;;;;;;5.68;2.10;;;;;;;;;;5052894;28;20052;-67
2022/07/18 14:03:47;;;;;;;6.00;2.35;;;;;;;;;;5016630;28;20122;-66
2022/07/18 14:06:13;;;;;;;7.13;2.30;;;;;;;;;;5053536;28;20108;-67
2022/07/18 14:08:40;;;;;;;7.63;2.20;;;;;;;;;;5041072;28;20143;-66
2022/07/18 14:11:06;;;;;;;9.30;2.55;;;;;;;;;;5048427;28;20129;-65
2022/07/18 14:13:32;;;;;;;7.05;2.30;;;;;;;;;;5036455;28;20029;-66
2022/07/18 14:15:58;;;;;;;8.05;2.60;;;;;;;;;;5053140;28;20032;-65
2022/07/18 14:18:24;;;;;;;6.38;2.42;;;;;;;;;;5056452;28;20031;-68
2022/07/18 14:20:50;;;;;;;9.90;2.72;;;;;;;;;;5053047;28;20393;-68
2022/07/18 14:23:17;;;;;;;9.60;2.40;;;;;;;;;;5054307;28;20119;-67
2022/07/18 14:25:43;;;;;;;8.38;2.33;;;;;;;;;;5054838;28;20031;-67
2022/07/18 14:28:09;;;;;;;6.32;2.33;;;;;;;;;;5054931;28;20406;-65
2022/07/18 14:30:35;;;;;;;7.88;2.50;;;;;;;;;;5039630;28;20051;-66
2022/07/18 14:33:02;;;;;;;5.45;2.22;;;;;;;;;;5047898;28;20040;-66
2022/07/18 14:35:28;;;;;;;10.20;2.28;;;;;;;;;;5048231;28;20110;-67
2022/07/18 14:37:54;;;;;;;6.57;2.30;;;;;;;;;;5045827;28;20032;-66
2022/07/18 14:40:20;;;;;;;9.63;2.40;;;;;;;;;;5048867;28;20510;-66
2022/07/18 14:42:46;;;;;;;5.70;2.20;;;;;;;;;;5043906;28;20040;-66